sensor_id;sensor_type;location;lat;lon;timestamp;temperature;humidity
45137;DHT22;30894;51.740;19.498;2023-01-10T00:02:14;4.90;99.90
45137;DHT22;30894;51.740;19.498;2023-01-10T00:04:40;4.80;99.90
45137;DHT22;30894;51.740;19.498;2023-01-10T00:07:07;4.80;99.90
45137;DHT22;30894;51.740;19.498;2023-01-10T00:09:33;4.80;99.90
45137;DHT22;30894;51.740;19.498;2023-01-10T00:11:59;4.80;99.90
45137;DHT22;30894;51.740;19.498;2023-01-10T00:14:43;4.80;99.90
45137;DHT22;30894;51.740;19.498;2023-01-10T00:17:10;4.70;99.90
45137;DHT22;30894;51.740;19.498;2023-01-10T00:19:36;4.70;99.90
45137;DHT22;30894;51.740;19.498;2023-01-10T00:22:03;4.80;99.90
45137;DHT22;30894;51.740;19.498;2023-01-10T00:24:32;4.70;99.90
45137;DHT22;30894;51.740;19.498;2023-01-10T00:26:58;4.70;99.90
45137;DHT22;30894;51.740;19.498;2023-01-10T00:29:27;4.70;99.90
45137;DHT22;30894;51.740;19.498;2023-01-10T00:31:54;4.80;99.90
45137;DHT22;30894;51.740;19.498;2023-01-10T00:34:20;4.80;99.90
45137;DHT22;30894;51.740;19.498;2023-01-10T00:36:46;4.80;99.90
45137;DHT22;30894;51.740;19.498;2023-01-10T00:39:14;4.80;99.90
45137;DHT22;30894;51.740;19.498;2023-01-10T00:41:41;4.80;99.90
45137;DHT22;30894;51.740;19.498;2023-01-10T00:44:25;4.80;99.90
45137;DHT22;30894;51.740;19.498;2023-01-10T00:46:52;4.80;99.90
45137;DHT22;30894;51.740;19.498;2023-01-10T00:49:18;4.90;99.90
45137;DHT22;30894;51.740;19.498;2023-01-10T00:51:44;4.80;99.90
45137;DHT22;30894;51.740;19.498;2023-01-10T00:54:12;4.80;99.90
45137;DHT22;30894;51.740;19.498;2023-01-10T00:56:39;4.80;99.90
45137;DHT22;30894;51.740;19.498;2023-01-10T00:59:05;4.80;99.90
45137;DHT22;30894;51.740;19.498;2023-01-10T01:01:32;4.80;99.90
45137;DHT22;30894;51.740;19.498;2023-01-10T01:03:58;4.80;99.90
45137;DHT22;30894;51.740;19.498;2023-01-10T01:06:25;4.80;99.90
45137;DHT22;30894;51.740;19.498;2023-01-10T01:08:51;4.80;99.90
45137;DHT22;30894;51.740;19.498;2023-01-10T01:11:18;4.80;99.90
45137;DHT22;30894;51.740;19.498;2023-01-10T01:13:44;4.80;99.90
45137;DHT22;30894;51.740;19.498;2023-01-10T01:16:10;4.90;99.90
45137;DHT22;30894;51.740;19.498;2023-01-10T01:18:36;4.70;99.90
45137;DHT22;30894;51.740;19.498;2023-01-10T01:21:02;4.80;99.90
45137;DHT22;30894;51.740;19.498;2023-01-10T01:23:32;4.80;99.90
45137;DHT22;30894;51.740;19.498;2023-01-10T01:25:59;4.80;99.90
45137;DHT22;30894;51.740;19.498;2023-01-10T01:28:25;4.70;99.90
45137;DHT22;30894;51.740;19.498;2023-01-10T01:30:52;4.70;99.90
45137;DHT22;30894;51.740;19.498;2023-01-10T01:33:18;4.70;99.90
45137;DHT22;30894;51.740;19.498;2023-01-10T01:35:46;4.80;99.90
45137;DHT22;30894;51.740;19.498;2023-01-10T01:38:13;4.60;99.90
45137;DHT22;30894;51.740;19.498;2023-01-10T01:40:40;4.60;99.90
45137;DHT22;30894;51.740;19.498;2023-01-10T01:43:24;4.50;99.90
45137;DHT22;30894;51.740;19.498;2023-01-10T01:45:58;4.40;99.90
45137;DHT22;30894;51.740;19.498;2023-01-10T01:53:43;4.30;99.90
45137;DHT22;30894;51.740;19.498;2023-01-10T01:56:16;4.20;99.90
45137;DHT22;30894;51.740;19.498;2023-01-10T01:58:56;4.10;99.90
45137;DHT22;30894;51.740;19.498;2023-01-10T02:01:27;4.00;99.90
45137;DHT22;30894;51.740;19.498;2023-01-10T02:04:01;4.00;99.90
45137;DHT22;30894;51.740;19.498;2023-01-10T02:06:32;3.90;99.90
45137;DHT22;30894;51.740;19.498;2023-01-10T02:09:16;3.90;99.90
45137;DHT22;30894;51.740;19.498;2023-01-10T02:11:44;3.80;99.90
45137;DHT22;30894;51.740;19.498;2023-01-10T02:14:11;3.70;99.90
45137;DHT22;30894;51.740;19.498;2023-01-10T02:16:39;3.70;99.90
45137;DHT22;30894;51.740;19.498;2023-01-10T02:35:06;3.30;99.90
45137;DHT22;30894;51.740;19.498;2023-01-10T02:38:06;3.30;99.90
45137;DHT22;30894;51.740;19.498;2023-01-10T02:43:15;3.20;99.90
45137;DHT22;30894;51.740;19.498;2023-01-10T02:45:53;3.20;99.90
45137;DHT22;30894;51.740;19.498;2023-01-10T02:48:22;3.20;99.90
45137;DHT22;30894;51.740;19.498;2023-01-10T03:12:31;3.30;99.90
45137;DHT22;30894;51.740;19.498;2023-01-10T03:15:14;3.30;99.90
45137;DHT22;30894;51.740;19.498;2023-01-10T03:17:45;3.30;99.90
45137;DHT22;30894;51.740;19.498;2023-01-10T03:20:16;3.30;99.90
45137;DHT22;30894;51.740;19.498;2023-01-10T03:22:46;3.40;99.90
45137;DHT22;30894;51.740;19.498;2023-01-10T03:25:14;3.40;99.90
45137;DHT22;30894;51.740;19.498;2023-01-10T03:28:01;3.40;99.90
45137;DHT22;30894;51.740;19.498;2023-01-10T03:30:57;3.40;99.90
45137;DHT22;30894;51.740;19.498;2023-01-10T03:33:28;3.50;99.90
45137;DHT22;30894;51.740;19.498;2023-01-10T03:36:27;3.50;99.90
45137;DHT22;30894;51.740;19.498;2023-01-10T03:39:10;3.50;99.90
45137;DHT22;30894;51.740;19.498;2023-01-10T03:45:32;3.50;99.90
45137;DHT22;30894;51.740;19.498;2023-01-10T03:48:05;3.60;99.90
45137;DHT22;30894;51.740;19.498;2023-01-10T03:50:34;3.60;99.90
45137;DHT22;30894;51.740;19.498;2023-01-10T03:53:01;3.50;99.90
45137;DHT22;30894;51.740;19.498;2023-01-10T03:55:27;3.60;99.90
45137;DHT22;30894;51.740;19.498;2023-01-10T03:57:54;3.70;99.90
45137;DHT22;30894;51.740;19.498;2023-01-10T04:00:21;3.60;99.90
45137;DHT22;30894;51.740;19.498;2023-01-10T04:02:48;3.70;99.90
45137;DHT22;30894;51.740;19.498;2023-01-10T04:05:15;3.70;99.90
45137;DHT22;30894;51.740;19.498;2023-01-10T04:07:41;3.70;99.90
45137;DHT22;30894;51.740;19.498;2023-01-10T04:10:08;3.70;99.90
45137;DHT22;30894;51.740;19.498;2023-01-10T04:12:34;3.80;99.90
45137;DHT22;30894;51.740;19.498;2023-01-10T04:15:00;3.80;99.90
45137;DHT22;30894;51.740;19.498;2023-01-10T04:17:27;3.80;99.90
45137;DHT22;30894;51.740;19.498;2023-01-10T04:19:53;3.90;99.90
45137;DHT22;30894;51.740;19.498;2023-01-10T04:22:19;3.80;99.90
45137;DHT22;30894;51.740;19.498;2023-01-10T04:24:46;3.90;99.90
45137;DHT22;30894;51.740;19.498;2023-01-10T04:27:13;3.80;99.90
45137;DHT22;30894;51.740;19.498;2023-01-10T04:29:39;3.90;99.90
45137;DHT22;30894;51.740;19.498;2023-01-10T04:32:05;3.90;99.90
45137;DHT22;30894;51.740;19.498;2023-01-10T04:34:31;4.00;99.90
45137;DHT22;30894;51.740;19.498;2023-01-10T04:36:57;4.00;99.90
45137;DHT22;30894;51.740;19.498;2023-01-10T04:39:23;4.00;99.90
45137;DHT22;30894;51.740;19.498;2023-01-10T04:41:49;4.00;99.90
45137;DHT22;30894;51.740;19.498;2023-01-10T04:44:15;4.10;99.90
45137;DHT22;30894;51.740;19.498;2023-01-10T04:46:41;4.10;99.90
45137;DHT22;30894;51.740;19.498;2023-01-10T04:49:09;4.10;99.90
45137;DHT22;30894;51.740;19.498;2023-01-10T04:51:35;4.10;99.90
45137;DHT22;30894;51.740;19.498;2023-01-10T04:54:01;4.10;99.90
45137;DHT22;30894;51.740;19.498;2023-01-10T04:56:27;4.10;99.90
45137;DHT22;30894;51.740;19.498;2023-01-10T04:58:53;4.10;99.90
45137;DHT22;30894;51.740;19.498;2023-01-10T05:01:23;4.10;99.90
45137;DHT22;30894;51.740;19.498;2023-01-10T05:03:52;4.10;99.90
45137;DHT22;30894;51.740;19.498;2023-01-10T05:06:20;4.10;99.90
45137;DHT22;30894;51.740;19.498;2023-01-10T05:08:47;4.10;99.90
45137;DHT22;30894;51.740;19.498;2023-01-10T05:11:14;4.10;99.90
45137;DHT22;30894;51.740;19.498;2023-01-10T05:13:40;4.00;99.90
45137;DHT22;30894;51.740;19.498;2023-01-10T05:16:06;4.00;99.90
45137;DHT22;30894;51.740;19.498;2023-01-10T05:18:33;4.00;99.90
45137;DHT22;30894;51.740;19.498;2023-01-10T05:21:07;4.00;99.90
45137;DHT22;30894;51.740;19.498;2023-01-10T05:23:36;4.00;99.90
45137;DHT22;30894;51.740;19.498;2023-01-10T05:26:11;4.00;99.90
45137;DHT22;30894;51.740;19.498;2023-01-10T05:28:39;4.00;99.90
45137;DHT22;30894;51.740;19.498;2023-01-10T05:31:07;4.00;99.90
45137;DHT22;30894;51.740;19.498;2023-01-10T05:33:34;4.00;99.90
45137;DHT22;30894;51.740;19.498;2023-01-10T05:36:05;4.00;99.90
45137;DHT22;30894;51.740;19.498;2023-01-10T05:38:32;4.00;99.90
45137;DHT22;30894;51.740;19.498;2023-01-10T05:41:16;4.00;99.90
45137;DHT22;30894;51.740;19.498;2023-01-10T05:43:44;4.00;99.90
45137;DHT22;30894;51.740;19.498;2023-01-10T05:46:14;3.90;99.90
45137;DHT22;30894;51.740;19.498;2023-01-10T05:48:40;3.90;99.90
45137;DHT22;30894;51.740;19.498;2023-01-10T05:51:06;3.90;99.90
45137;DHT22;30894;51.740;19.498;2023-01-10T05:53:33;4.00;99.90
45137;DHT22;30894;51.740;19.498;2023-01-10T05:56:00;4.00;99.90
45137;DHT22;30894;51.740;19.498;2023-01-10T05:58:27;3.90;99.90
45137;DHT22;30894;51.740;19.498;2023-01-10T06:00:55;4.00;99.90
45137;DHT22;30894;51.740;19.498;2023-01-10T06:03:22;4.00;99.90
45137;DHT22;30894;51.740;19.498;2023-01-10T06:05:52;4.00;99.90
45137;DHT22;30894;51.740;19.498;2023-01-10T06:08:19;3.90;99.90
45137;DHT22;30894;51.740;19.498;2023-01-10T06:10:45;3.90;99.90
45137;DHT22;30894;51.740;19.498;2023-01-10T06:13:24;3.90;99.90
45137;DHT22;30894;51.740;19.498;2023-01-10T06:16:26;3.90;99.90
45137;DHT22;30894;51.740;19.498;2023-01-10T06:18:53;4.00;99.90
45137;DHT22;30894;51.740;19.498;2023-01-10T06:21:20;3.90;99.90
45137;DHT22;30894;51.740;19.498;2023-01-10T06:24:18;3.90;99.90
45137;DHT22;30894;51.740;19.498;2023-01-10T06:27:15;3.90;99.90
45137;DHT22;30894;51.740;19.498;2023-01-10T06:29:42;4.00;99.90
45137;DHT22;30894;51.740;19.498;2023-01-10T06:32:22;4.00;99.90
45137;DHT22;30894;51.740;19.498;2023-01-10T06:34:48;4.00;99.90
45137;DHT22;30894;51.740;19.498;2023-01-10T06:37:14;4.00;99.90
45137;DHT22;30894;51.740;19.498;2023-01-10T06:39:41;4.00;99.90
45137;DHT22;30894;51.740;19.498;2023-01-10T06:42:07;4.00;99.90
45137;DHT22;30894;51.740;19.498;2023-01-10T06:44:33;4.00;99.90
45137;DHT22;30894;51.740;19.498;2023-01-10T06:46:59;4.00;99.90
45137;DHT22;30894;51.740;19.498;2023-01-10T06:49:25;4.00;99.90
45137;DHT22;30894;51.740;19.498;2023-01-10T06:51:52;4.10;99.90
45137;DHT22;30894;51.740;19.498;2023-01-10T06:57:04;4.10;99.90
45137;DHT22;30894;51.740;19.498;2023-01-10T06:59:30;4.20;99.90
45137;DHT22;30894;51.740;19.498;2023-01-10T07:01:56;4.20;99.90
45137;DHT22;30894;51.740;19.498;2023-01-10T07:04:29;4.30;99.90
45137;DHT22;30894;51.740;19.498;2023-01-10T07:07:02;4.30;99.90
45137;DHT22;30894;51.740;19.498;2023-01-10T07:09:31;4.30;99.90
45137;DHT22;30894;51.740;19.498;2023-01-10T07:11:58;4.40;99.90
45137;DHT22;30894;51.740;19.498;2023-01-10T07:14:25;4.40;99.90
45137;DHT22;30894;51.740;19.498;2023-01-10T07:16:51;4.40;99.90
45137;DHT22;30894;51.740;19.498;2023-01-10T07:19:17;4.50;99.90
45137;DHT22;30894;51.740;19.498;2023-01-10T07:21:44;4.50;99.90
45137;DHT22;30894;51.740;19.498;2023-01-10T07:24:12;4.50;99.90
45137;DHT22;30894;51.740;19.498;2023-01-10T07:26:38;4.60;99.90
45137;DHT22;30894;51.740;19.498;2023-01-10T07:29:04;4.60;99.90
45137;DHT22;30894;51.740;19.498;2023-01-10T07:31:30;4.60;99.90
45137;DHT22;30894;51.740;19.498;2023-01-10T07:33:56;4.70;99.90
45137;DHT22;30894;51.740;19.498;2023-01-10T07:36:22;4.70;99.90
45137;DHT22;30894;51.740;19.498;2023-01-10T07:38:49;4.70;99.90
45137;DHT22;30894;51.740;19.498;2023-01-10T07:41:15;4.80;99.90
45137;DHT22;30894;51.740;19.498;2023-01-10T07:43:41;4.80;99.90
45137;DHT22;30894;51.740;19.498;2023-01-10T07:46:09;4.80;99.90
45137;DHT22;30894;51.740;19.498;2023-01-10T07:48:37;4.80;99.90
45137;DHT22;30894;51.740;19.498;2023-01-10T07:51:06;4.90;99.90
45137;DHT22;30894;51.740;19.498;2023-01-10T07:53:32;4.90;99.90
45137;DHT22;30894;51.740;19.498;2023-01-10T07:56:02;5.00;99.90
45137;DHT22;30894;51.740;19.498;2023-01-10T07:58:51;5.00;99.90
45137;DHT22;30894;51.740;19.498;2023-01-10T08:01:17;5.00;99.90
45137;DHT22;30894;51.740;19.498;2023-01-10T08:03:44;5.00;99.90
45137;DHT22;30894;51.740;19.498;2023-01-10T08:06:10;5.10;99.90
45137;DHT22;30894;51.740;19.498;2023-01-10T08:08:37;5.10;99.90
45137;DHT22;30894;51.740;19.498;2023-01-10T08:11:04;5.20;99.90
45137;DHT22;30894;51.740;19.498;2023-01-10T08:13:31;5.20;99.90
45137;DHT22;30894;51.740;19.498;2023-01-10T08:15:57;5.30;99.90
45137;DHT22;30894;51.740;19.498;2023-01-10T08:18:26;5.30;99.90
45137;DHT22;30894;51.740;19.498;2023-01-10T08:20:52;5.30;99.90
45137;DHT22;30894;51.740;19.498;2023-01-10T08:23:19;5.30;99.90
45137;DHT22;30894;51.740;19.498;2023-01-10T08:25:46;5.40;99.90
45137;DHT22;30894;51.740;19.498;2023-01-10T08:28:14;5.40;99.90
45137;DHT22;30894;51.740;19.498;2023-01-10T08:30:43;5.40;99.90
45137;DHT22;30894;51.740;19.498;2023-01-10T08:33:10;5.40;99.90
45137;DHT22;30894;51.740;19.498;2023-01-10T08:35:41;5.40;99.90
45137;DHT22;30894;51.740;19.498;2023-01-10T08:38:11;5.40;99.90
45137;DHT22;30894;51.740;19.498;2023-01-10T08:40:37;5.40;99.90
45137;DHT22;30894;51.740;19.498;2023-01-10T08:43:06;5.30;99.90
45137;DHT22;30894;51.740;19.498;2023-01-10T08:45:35;5.40;99.90
45137;DHT22;30894;51.740;19.498;2023-01-10T08:48:03;5.40;99.90
45137;DHT22;30894;51.740;19.498;2023-01-10T08:50:31;5.40;99.90
45137;DHT22;30894;51.740;19.498;2023-01-10T08:52:58;5.40;99.90
45137;DHT22;30894;51.740;19.498;2023-01-10T08:55:26;5.40;99.90
45137;DHT22;30894;51.740;19.498;2023-01-10T08:58:04;5.40;99.90
45137;DHT22;30894;51.740;19.498;2023-01-10T09:00:30;5.50;99.90
45137;DHT22;30894;51.740;19.498;2023-01-10T09:02:56;5.50;99.90
45137;DHT22;30894;51.740;19.498;2023-01-10T09:05:23;5.60;99.90
45137;DHT22;30894;51.740;19.498;2023-01-10T09:07:51;5.60;99.90
45137;DHT22;30894;51.740;19.498;2023-01-10T09:10:18;5.70;99.90
45137;DHT22;30894;51.740;19.498;2023-01-10T09:12:47;5.70;99.90
45137;DHT22;30894;51.740;19.498;2023-01-10T09:15:56;5.70;99.90
45137;DHT22;30894;51.740;19.498;2023-01-10T09:18:23;5.80;99.90
45137;DHT22;30894;51.740;19.498;2023-01-10T09:20:52;5.80;99.90
45137;DHT22;30894;51.740;19.498;2023-01-10T09:23:21;5.80;99.90
45137;DHT22;30894;51.740;19.498;2023-01-10T09:25:50;5.80;99.90
45137;DHT22;30894;51.740;19.498;2023-01-10T09:28:19;5.80;99.90
45137;DHT22;30894;51.740;19.498;2023-01-10T09:30:51;5.90;99.90
45137;DHT22;30894;51.740;19.498;2023-01-10T09:33:18;5.90;99.90
45137;DHT22;30894;51.740;19.498;2023-01-10T09:35:44;6.00;99.90
45137;DHT22;30894;51.740;19.498;2023-01-10T09:38:15;6.00;99.90
45137;DHT22;30894;51.740;19.498;2023-01-10T09:53:20;6.40;99.90
45137;DHT22;30894;51.740;19.498;2023-01-10T09:55:52;6.40;99.90
45137;DHT22;30894;51.740;19.498;2023-01-10T09:58:25;6.50;99.90
45137;DHT22;30894;51.740;19.498;2023-01-10T10:03:53;6.60;99.90
45137;DHT22;30894;51.740;19.498;2023-01-10T10:06:25;6.70;99.90
45137;DHT22;30894;51.740;19.498;2023-01-10T10:08:52;6.70;99.90
45137;DHT22;30894;51.740;19.498;2023-01-10T10:28:06;7.10;99.90
45137;DHT22;30894;51.740;19.498;2023-01-10T10:30:51;7.20;99.90
45137;DHT22;30894;51.740;19.498;2023-01-10T10:36:47;7.20;99.90
45137;DHT22;30894;51.740;19.498;2023-01-10T10:39:21;7.00;99.90
45137;DHT22;30894;51.740;19.498;2023-01-10T10:41:55;7.00;99.90
45137;DHT22;30894;51.740;19.498;2023-01-10T10:47:05;6.90;99.90
45137;DHT22;30894;51.740;19.498;2023-01-10T10:49:49;7.00;99.90
45137;DHT22;30894;51.740;19.498;2023-01-10T10:52:34;7.00;99.90
45137;DHT22;30894;51.740;19.498;2023-01-10T10:55:05;7.00;99.90
45137;DHT22;30894;51.740;19.498;2023-01-10T10:57:37;7.10;99.90
45137;DHT22;30894;51.740;19.498;2023-01-10T11:00:07;7.10;99.90
45137;DHT22;30894;51.740;19.498;2023-01-10T11:02:42;7.20;99.90
45137;DHT22;30894;51.740;19.498;2023-01-10T11:05:20;7.20;99.90
45137;DHT22;30894;51.740;19.498;2023-01-10T11:07:50;7.20;99.90
45137;DHT22;30894;51.740;19.498;2023-01-10T11:10:22;7.20;99.90
45137;DHT22;30894;51.740;19.498;2023-01-10T11:13:07;7.30;99.90
45137;DHT22;30894;51.740;19.498;2023-01-10T11:15:51;7.30;99.90
45137;DHT22;30894;51.740;19.498;2023-01-10T11:18:21;7.30;99.90
45137;DHT22;30894;51.740;19.498;2023-01-10T11:21:13;7.30;99.90
45137;DHT22;30894;51.740;19.498;2023-01-10T11:23:58;7.40;99.90
45137;DHT22;30894;51.740;19.498;2023-01-10T11:26:30;7.40;99.90
45137;DHT22;30894;51.740;19.498;2023-01-10T11:29:58;7.40;99.90
45137;DHT22;30894;51.740;19.498;2023-01-10T11:32:54;7.40;99.90
45137;DHT22;30894;51.740;19.498;2023-01-10T11:35:30;7.30;99.90
45137;DHT22;30894;51.740;19.498;2023-01-10T11:40:55;7.20;99.90
45137;DHT22;30894;51.740;19.498;2023-01-10T11:46:05;7.20;99.90
45137;DHT22;30894;51.740;19.498;2023-01-10T11:48:44;7.10;99.90
45137;DHT22;30894;51.740;19.498;2023-01-10T11:51:22;7.10;99.90
45137;DHT22;30894;51.740;19.498;2023-01-10T11:54:04;7.00;99.90
45137;DHT22;30894;51.740;19.498;2023-01-10T11:56:34;7.00;99.90
45137;DHT22;30894;51.740;19.498;2023-01-10T11:59:15;7.00;99.90
45137;DHT22;30894;51.740;19.498;2023-01-10T12:01:47;7.00;99.90
45137;DHT22;30894;51.740;19.498;2023-01-10T12:04:42;7.00;99.90
45137;DHT22;30894;51.740;19.498;2023-01-10T12:07:11;7.00;99.90
45137;DHT22;30894;51.740;19.498;2023-01-10T12:09:42;7.00;99.90
45137;DHT22;30894;51.740;19.498;2023-01-10T12:12:25;7.00;99.90
45137;DHT22;30894;51.740;19.498;2023-01-10T12:15:44;7.10;99.90
45137;DHT22;30894;51.740;19.498;2023-01-10T12:17:50;7.10;99.90
45137;DHT22;30894;51.740;19.498;2023-01-10T12:20:21;7.10;99.90
45137;DHT22;30894;51.740;19.498;2023-01-10T12:22:57;7.10;99.90
45137;DHT22;30894;51.740;19.498;2023-01-10T12:25:36;7.10;99.90
45137;DHT22;30894;51.740;19.498;2023-01-10T12:28:24;7.10;99.90
45137;DHT22;30894;51.740;19.498;2023-01-10T12:30:57;7.20;99.90
45137;DHT22;30894;51.740;19.498;2023-01-10T12:33:34;7.20;99.90
45137;DHT22;30894;51.740;19.498;2023-01-10T12:36:08;7.20;99.90
45137;DHT22;30894;51.740;19.498;2023-01-10T12:38:44;7.20;99.90
45137;DHT22;30894;51.740;19.498;2023-01-10T12:44:44;7.10;99.90
45137;DHT22;30894;51.740;19.498;2023-01-10T12:50:06;7.10;99.90
45137;DHT22;30894;51.740;19.498;2023-01-10T12:52:45;7.10;99.90
45137;DHT22;30894;51.740;19.498;2023-01-10T12:55:15;7.10;99.90
45137;DHT22;30894;51.740;19.498;2023-01-10T12:57:45;7.10;99.90
45137;DHT22;30894;51.740;19.498;2023-01-10T13:00:34;7.00;99.90
45137;DHT22;30894;51.740;19.498;2023-01-10T13:03:09;7.00;99.90
45137;DHT22;30894;51.740;19.498;2023-01-10T13:05:37;6.90;99.90
45137;DHT22;30894;51.740;19.498;2023-01-10T13:08:24;6.90;99.90
45137;DHT22;30894;51.740;19.498;2023-01-10T13:10:57;6.90;99.90
45137;DHT22;30894;51.740;19.498;2023-01-10T13:18:35;6.70;99.90
45137;DHT22;30894;51.740;19.498;2023-01-10T13:21:04;6.70;99.90
45137;DHT22;30894;51.740;19.498;2023-01-10T13:23:47;6.70;99.90
45137;DHT22;30894;51.740;19.498;2023-01-10T13:26:15;6.60;99.90
45137;DHT22;30894;51.740;19.498;2023-01-10T13:28:56;6.60;99.90
45137;DHT22;30894;51.740;19.498;2023-01-10T13:31:33;6.50;99.90
45137;DHT22;30894;51.740;19.498;2023-01-10T13:34:05;6.50;99.90
45137;DHT22;30894;51.740;19.498;2023-01-10T13:36:39;6.50;99.90
45137;DHT22;30894;51.740;19.498;2023-01-10T14:00:56;6.10;99.90
45137;DHT22;30894;51.740;19.498;2023-01-10T14:03:53;6.00;99.90
45137;DHT22;30894;51.740;19.498;2023-01-10T14:08:59;6.00;99.90
45137;DHT22;30894;51.740;19.498;2023-01-10T14:14:38;6.00;99.90
45137;DHT22;30894;51.740;19.498;2023-01-10T14:19:45;6.00;99.90
45137;DHT22;30894;51.740;19.498;2023-01-10T14:22:29;5.90;99.90
45137;DHT22;30894;51.740;19.498;2023-01-10T14:25:04;5.90;99.90
45137;DHT22;30894;51.740;19.498;2023-01-10T14:27:45;6.00;99.90
45137;DHT22;30894;51.740;19.498;2023-01-10T14:30:34;6.00;99.90
45137;DHT22;30894;51.740;19.498;2023-01-10T14:33:14;6.00;99.90
45137;DHT22;30894;51.740;19.498;2023-01-10T14:35:46;5.90;99.90
45137;DHT22;30894;51.740;19.498;2023-01-10T14:38:44;5.90;99.90
45137;DHT22;30894;51.740;19.498;2023-01-10T14:41:19;5.90;99.90
45137;DHT22;30894;51.740;19.498;2023-01-10T14:44:18;5.90;99.90
45137;DHT22;30894;51.740;19.498;2023-01-10T14:46:50;5.90;99.90
45137;DHT22;30894;51.740;19.498;2023-01-10T14:49:27;5.90;99.90
45137;DHT22;30894;51.740;19.498;2023-01-10T14:55:26;5.90;99.90
45137;DHT22;30894;51.740;19.498;2023-01-10T14:57:57;5.90;99.90
45137;DHT22;30894;51.740;19.498;2023-01-10T15:00:28;5.90;99.90
45137;DHT22;30894;51.740;19.498;2023-01-10T15:02:57;5.90;99.90
45137;DHT22;30894;51.740;19.498;2023-01-10T15:05:29;5.90;99.90
45137;DHT22;30894;51.740;19.498;2023-01-10T15:08:22;5.90;99.90
45137;DHT22;30894;51.740;19.498;2023-01-10T15:10:55;5.90;99.90
45137;DHT22;30894;51.740;19.498;2023-01-10T15:13:33;5.90;99.90
45137;DHT22;30894;51.740;19.498;2023-01-10T15:16:02;5.90;99.90
45137;DHT22;30894;51.740;19.498;2023-01-10T15:18:38;5.90;99.90
45137;DHT22;30894;51.740;19.498;2023-01-10T15:21:10;5.90;99.90
45137;DHT22;30894;51.740;19.498;2023-01-10T15:23:41;5.90;99.90
45137;DHT22;30894;51.740;19.498;2023-01-10T15:26:26;5.90;99.90
45137;DHT22;30894;51.740;19.498;2023-01-10T15:29:12;5.90;99.90
45137;DHT22;30894;51.740;19.498;2023-01-10T15:31:46;5.90;99.90
45137;DHT22;30894;51.740;19.498;2023-01-10T15:34:19;5.90;99.90
45137;DHT22;30894;51.740;19.498;2023-01-10T15:36:48;6.00;99.90
45137;DHT22;30894;51.740;19.498;2023-01-10T15:39:22;6.00;99.90
45137;DHT22;30894;51.740;19.498;2023-01-10T15:41:55;6.00;99.90
45137;DHT22;30894;51.740;19.498;2023-01-10T15:44:42;5.90;99.90
45137;DHT22;30894;51.740;19.498;2023-01-10T15:47:49;5.90;99.90
45137;DHT22;30894;51.740;19.498;2023-01-10T15:50:27;5.90;99.90
45137;DHT22;30894;51.740;19.498;2023-01-10T15:53:03;5.90;99.90
45137;DHT22;30894;51.740;19.498;2023-01-10T15:55:46;5.90;99.90
45137;DHT22;30894;51.740;19.498;2023-01-10T15:58:17;5.90;99.90
45137;DHT22;30894;51.740;19.498;2023-01-10T16:00:54;5.90;99.90
45137;DHT22;30894;51.740;19.498;2023-01-10T16:03:33;5.90;99.90
45137;DHT22;30894;51.740;19.498;2023-01-10T16:06:03;5.90;99.90
45137;DHT22;30894;51.740;19.498;2023-01-10T16:08:36;5.90;99.90
45137;DHT22;30894;51.740;19.498;2023-01-10T16:11:13;5.90;99.90
45137;DHT22;30894;51.740;19.498;2023-01-10T16:14:09;5.90;99.90
45137;DHT22;30894;51.740;19.498;2023-01-10T16:16:41;5.90;99.90
45137;DHT22;30894;51.740;19.498;2023-01-10T16:19:08;5.90;99.90
45137;DHT22;30894;51.740;19.498;2023-01-10T16:21:38;5.90;99.90
45137;DHT22;30894;51.740;19.498;2023-01-10T16:24:06;5.90;99.90
45137;DHT22;30894;51.740;19.498;2023-01-10T16:26:40;5.80;99.90
45137;DHT22;30894;51.740;19.498;2023-01-10T16:29:07;5.80;99.90
45137;DHT22;30894;51.740;19.498;2023-01-10T16:31:43;5.80;99.90
45137;DHT22;30894;51.740;19.498;2023-01-10T16:34:09;5.80;99.90
45137;DHT22;30894;51.740;19.498;2023-01-10T16:36:37;5.80;99.90
45137;DHT22;30894;51.740;19.498;2023-01-10T16:39:07;5.80;99.90
45137;DHT22;30894;51.740;19.498;2023-01-10T16:41:38;5.80;99.90
45137;DHT22;30894;51.740;19.498;2023-01-10T16:44:44;5.80;99.90
45137;DHT22;30894;51.740;19.498;2023-01-10T16:47:10;5.80;99.90
45137;DHT22;30894;51.740;19.498;2023-01-10T16:49:36;5.80;99.90
45137;DHT22;30894;51.740;19.498;2023-01-10T16:52:03;5.80;99.90
45137;DHT22;30894;51.740;19.498;2023-01-10T16:54:29;5.70;99.90
45137;DHT22;30894;51.740;19.498;2023-01-10T16:56:55;5.80;99.90
45137;DHT22;30894;51.740;19.498;2023-01-10T16:59:22;5.80;99.90
45137;DHT22;30894;51.740;19.498;2023-01-10T17:01:54;5.80;99.90
45137;DHT22;30894;51.740;19.498;2023-01-10T17:04:27;5.80;99.90
45137;DHT22;30894;51.740;19.498;2023-01-10T17:06:55;5.80;99.90
45137;DHT22;30894;51.740;19.498;2023-01-10T17:09:24;5.80;99.90
45137;DHT22;30894;51.740;19.498;2023-01-10T17:11:57;5.80;99.90
45137;DHT22;30894;51.740;19.498;2023-01-10T17:14:33;5.80;99.90
45137;DHT22;30894;51.740;19.498;2023-01-10T17:17:01;5.80;99.90
45137;DHT22;30894;51.740;19.498;2023-01-10T17:19:31;5.80;99.90
45137;DHT22;30894;51.740;19.498;2023-01-10T17:22:05;5.80;99.90
45137;DHT22;30894;51.740;19.498;2023-01-10T17:24:53;5.80;99.90
45137;DHT22;30894;51.740;19.498;2023-01-10T17:27:34;5.80;99.90
45137;DHT22;30894;51.740;19.498;2023-01-10T17:30:00;5.80;99.90
45137;DHT22;30894;51.740;19.498;2023-01-10T17:32:26;5.80;99.90
45137;DHT22;30894;51.740;19.498;2023-01-10T17:34:52;5.70;99.90
45137;DHT22;30894;51.740;19.498;2023-01-10T17:37:18;5.70;99.90
45137;DHT22;30894;51.740;19.498;2023-01-10T17:39:45;5.70;99.90
45137;DHT22;30894;51.740;19.498;2023-01-10T17:42:13;5.70;99.90
45137;DHT22;30894;51.740;19.498;2023-01-10T17:44:40;5.70;99.90
45137;DHT22;30894;51.740;19.498;2023-01-10T17:47:20;5.60;99.90
45137;DHT22;30894;51.740;19.498;2023-01-10T17:49:47;5.60;99.90
45137;DHT22;30894;51.740;19.498;2023-01-10T17:52:18;5.60;99.90
45137;DHT22;30894;51.740;19.498;2023-01-10T17:54:45;5.50;99.90
45137;DHT22;30894;51.740;19.498;2023-01-10T17:57:15;5.40;99.90
45137;DHT22;30894;51.740;19.498;2023-01-10T17:59:41;5.30;99.90
45137;DHT22;30894;51.740;19.498;2023-01-10T18:02:14;5.20;99.90
45137;DHT22;30894;51.740;19.498;2023-01-10T18:04:43;5.30;99.90
45137;DHT22;30894;51.740;19.498;2023-01-10T18:07:10;5.30;99.90
45137;DHT22;30894;51.740;19.498;2023-01-10T18:09:38;5.40;99.90
45137;DHT22;30894;51.740;19.498;2023-01-10T18:12:04;5.50;99.90
45137;DHT22;30894;51.740;19.498;2023-01-10T18:14:31;5.50;99.90
45137;DHT22;30894;51.740;19.498;2023-01-10T18:17:22;5.60;99.90
45137;DHT22;30894;51.740;19.498;2023-01-10T18:19:49;5.60;99.90
45137;DHT22;30894;51.740;19.498;2023-01-10T18:22:16;5.60;99.90